Pagrindinis puslapis
METAR-TAF:

METAR-TAF

Oro uostai :

Kajo Largo del Suras, Kuba

platuma: 21-37N, ilguma: 081-33W, Aukštis: 2 m

Dabartinis oras

Ataskaita buvo paskelbta 33 minutes, ne 12:51 UTC
Vėjas 10 kt iš Rytų/Šiaurės Rytų
Temperatūra 24°C
Drėgmė 69%
Slėgis 1018 hPa
Matomumas: 9000 m
Mažai debesys ne aukštis 2000 ft

METAR: MUCL 211251Z 06010KT 9000 FEW020 24/18 Q1018

Laikas: 08:24 (13:24 UTC)

Prognozė

Ataskaita buvo paskelbta 2 valandos ir 24 minutes, ne 11:00 UTC
Prognozė galioja nuo 21 metu 12 UTC su 21 metu 24 UTC
Vėjas 3 kt nuo kintamojo kryptimis
Matomumas: 9000 m
Išsisklaidę debesys ne aukštis 2000 ft
Tapsmas
nuo 21 metu 15 UTC su 21 metu 17 UTC
Vėjas 10 kt iš Rytų

TAF: MUCL 211100Z 2112/2124 VRB03KT 9000 SCT020 BECMG 2115/2117 08010KT

Orai ataskaitas ir orų prognozės (METAR, TAF).

turimą stotys yra geltonos ir raudonos taškus žemėlapyje.

Perkelti pele per norėdami pamatyti stoties vardą.

Tada spustelėkite, norėdami matyti oro stebėjimo ir prognozės.

Norėdami pakeisti žemėlapį: spustelėkite ant žalios mygtukų su juodo kryžiaus žemyn,; žalią mygtuką su brūkšneliu, jei norite nutolinti; arba žalių rodyklių gretimoms žemėlapius.


METAR-TAF: